createdAt,value
2022-11-19T00:01:28.368Z,101222.81
2022-11-19T00:03:55.622Z,101223.50
2022-11-19T00:06:25.974Z,101224.50
2022-11-19T00:08:53.230Z,101224.38
2022-11-19T00:11:44.678Z,101225.19
2022-11-19T00:14:14.211Z,101229.19
2022-11-19T00:16:42.322Z,101234.41
2022-11-19T00:19:11.030Z,101231.00
2022-11-19T00:21:37.919Z,101224.03
2022-11-19T00:24:05.136Z,101227.53
2022-11-19T00:26:32.019Z,101230.00
2022-11-19T00:28:58.940Z,101233.25
2022-11-19T00:31:25.878Z,101228.91
2022-11-19T00:33:54.541Z,101224.59
2022-11-19T00:36:22.294Z,101224.59
2022-11-19T00:38:49.184Z,101223.72
2022-11-19T00:41:16.066Z,101221.19
2022-11-19T00:43:49.884Z,101223.72
2022-11-19T00:46:20.323Z,101235.31
2022-11-19T00:48:49.226Z,101235.63
2022-11-19T00:51:18.031Z,101236.09
2022-11-19T00:53:45.284Z,101227.66
2022-11-19T00:56:15.492Z,101226.97
2022-11-19T00:58:42.639Z,101224.03
2022-11-19T01:01:10.863Z,101233.75
2022-11-19T01:03:39.063Z,101243.84
2022-11-19T01:06:08.072Z,101248.84
2022-11-19T01:08:35.579Z,101258.00
2022-11-19T01:11:30.711Z,101252.03
2022-11-19T01:13:59.606Z,101248.47
2022-11-19T01:16:33.775Z,101260.38
2022-11-19T01:19:01.435Z,101247.50
2022-11-19T01:21:32.128Z,101261.81
2022-11-19T01:23:59.752Z,101249.84
2022-11-19T01:26:27.893Z,101252.41
2022-11-19T01:28:55.762Z,101250.63
2022-11-19T01:31:29.019Z,101255.72
2022-11-19T01:33:56.331Z,101252.28
2022-11-19T01:36:27.388Z,101239.53
2022-11-19T01:38:54.646Z,101233.66
2022-11-19T01:41:28.344Z,101235.31
2022-11-19T01:43:59.290Z,101231.13
2022-11-19T01:46:33.210Z,101223.47
2022-11-19T01:49:09.156Z,101226.00
2022-11-19T01:51:57.689Z,101237.88
2022-11-19T01:54:30.423Z,101235.25
2022-11-19T01:57:03.086Z,101233.56
2022-11-19T01:59:31.329Z,101242.00
2022-11-19T02:01:58.366Z,101224.72
2022-11-19T02:04:27.026Z,101241.41
2022-11-19T02:06:55.192Z,101234.53
2022-11-19T02:09:22.447Z,101226.97
2022-11-19T02:12:05.913Z,101227.06
2022-11-19T02:15:00.445Z,101226.19
2022-11-19T02:18:07.295Z,101227.94
2022-11-19T02:21:19.311Z,101234.91
2022-11-19T02:24:31.676Z,101235.91
2022-11-19T02:27:56.971Z,101242.19
2022-11-19T02:30:24.026Z,101251.88
2022-11-19T02:33:11.407Z,101248.84
2022-11-19T02:35:52.098Z,101248.44
2022-11-19T02:38:41.398Z,101248.81
2022-11-19T02:41:34.185Z,101246.63
2022-11-19T02:44:34.003Z,101250.56
2022-11-19T02:47:05.789Z,101248.38
2022-11-19T02:49:36.970Z,101244.63
2022-11-19T02:52:04.476Z,101234.59
2022-11-19T02:54:31.370Z,101229.84
2022-11-19T02:57:02.742Z,101233.56
2022-11-19T02:59:59.673Z,101225.31
2022-11-19T03:03:03.271Z,101219.50
2022-11-19T03:05:33.868Z,101211.13
2022-11-19T03:08:01.279Z,101202.66
2022-11-19T03:10:44.430Z,101202.06
2022-11-19T03:13:42.911Z,101201.44
2022-11-19T03:16:43.217Z,101192.19
2022-11-19T03:19:35.393Z,101198.38
2022-11-19T03:22:25.070Z,101195.13
2022-11-19T03:25:16.822Z,101188.31
2022-11-19T03:27:50.209Z,101193.44
2022-11-19T03:30:18.940Z,101198.53
2022-11-19T03:32:59.193Z,101201.09
2022-11-19T03:35:36.563Z,101193.31
2022-11-19T03:38:08.218Z,101202.16
2022-11-19T03:40:35.601Z,101197.94
2022-11-19T03:43:05.990Z,101184.78
2022-11-19T03:45:40.098Z,101181.25
2022-11-19T03:48:07.714Z,101192.03
2022-11-19T03:51:12.357Z,101186.03
2022-11-19T03:53:39.599Z,101194.69
2022-11-19T03:56:11.769Z,101180.81
2022-11-19T03:58:44.680Z,101182.84
2022-11-19T04:01:12.158Z,101185.59
2022-11-19T04:03:39.251Z,101176.25
2022-11-19T04:06:07.008Z,101172.88
2022-11-19T04:08:34.047Z,101178.09
2022-11-19T04:13:26.783Z,101164.34
2022-11-19T04:15:53.662Z,101173.44
2022-11-19T04:18:20.562Z,101189.09
2022-11-19T04:20:47.429Z,101191.88
2022-11-19T04:23:14.315Z,101187.69
2022-11-19T04:25:47.078Z,101184.84
2022-11-19T04:28:13.962Z,101186.91
2022-11-19T04:30:40.823Z,101180.28
2022-11-19T04:33:07.949Z,101173.72
2022-11-19T04:35:34.819Z,101171.44
2022-11-19T04:38:01.702Z,101171.69
2022-11-19T04:40:28.571Z,101178.91
2022-11-19T04:42:55.447Z,101174.13
2022-11-19T04:45:22.321Z,101165.88
2022-11-19T04:47:49.203Z,101167.03
2022-11-19T04:50:16.118Z,101163.03
2022-11-19T04:52:42.996Z,101153.03
2022-11-19T04:55:10.827Z,101155.84
2022-11-19T04:57:37.711Z,101158.66
2022-11-19T05:00:05.892Z,101152.97
2022-11-19T05:02:33.203Z,101151.53
2022-11-19T05:05:00.105Z,101150.19
2022-11-19T05:07:27.054Z,101152.13
2022-11-19T05:09:53.961Z,101150.69
2022-11-19T05:12:20.825Z,101155.31
2022-11-19T05:14:47.750Z,101155.66
2022-11-19T05:17:14.643Z,101143.94
2022-11-19T05:19:41.514Z,101151.00
2022-11-19T05:22:08.373Z,101149.56
2022-11-19T05:24:35.255Z,101142.88
2022-11-19T05:27:02.357Z,101149.84
2022-11-19T05:29:29.263Z,101140.63
2022-11-19T05:31:56.142Z,101133.97
2022-11-19T05:34:23.138Z,101130.59
2022-11-19T05:36:49.995Z,101137.16
2022-11-19T05:39:21.860Z,101145.66
2022-11-19T05:41:49.545Z,101135.78
2022-11-19T05:44:16.576Z,101133.28
2022-11-19T05:46:43.440Z,101119.38
2022-11-19T05:49:10.338Z,101139.75
2022-11-19T05:51:37.379Z,101131.44
2022-11-19T05:54:04.308Z,101123.06
2022-11-19T05:56:31.237Z,101128.31
2022-11-19T05:58:58.119Z,101123.41
2022-11-19T06:01:29.811Z,101127.09
2022-11-19T06:03:56.917Z,101115.22
2022-11-19T06:06:24.271Z,101117.94
2022-11-19T06:08:51.210Z,101115.53
2022-11-19T06:11:41.394Z,101116.47
2022-11-19T06:14:08.292Z,101108.09
2022-11-19T06:16:35.158Z,101105.69
2022-11-19T06:19:02.056Z,101110.81
2022-11-19T06:21:28.938Z,101109.34
2022-11-19T06:23:55.838Z,101106.00
2022-11-19T06:26:24.651Z,101102.69
2022-11-19T06:28:52.292Z,101117.34
2022-11-19T06:31:19.879Z,101101.06
2022-11-19T06:33:47.114Z,101115.88
2022-11-19T06:36:14.414Z,101111.75
2022-11-19T06:38:41.986Z,101105.81
2022-11-19T06:41:08.887Z,101106.00
2022-11-19T06:43:35.766Z,101094.13
2022-11-19T06:46:02.641Z,101095.16
2022-11-19T06:48:29.585Z,101090.03
2022-11-19T06:50:56.760Z,101101.25
2022-11-19T06:53:23.683Z,101092.81
2022-11-19T06:56:00.675Z,101091.13
2022-11-19T06:58:28.779Z,101079.97
2022-11-19T07:00:56.068Z,101087.69
2022-11-19T07:03:23.784Z,101079.16
2022-11-19T07:05:56.720Z,101063.47
2022-11-19T07:08:24.356Z,101071.31
2022-11-19T07:10:51.441Z,101077.41
2022-11-19T07:13:18.329Z,101068.00
2022-11-19T07:15:45.192Z,101072.28
2022-11-19T07:18:12.146Z,101069.75
2022-11-19T07:20:39.019Z,101067.31
2022-11-19T07:23:10.656Z,101062.19
2022-11-19T07:25:38.160Z,101065.78
2022-11-19T07:28:05.149Z,101063.25
2022-11-19T07:30:32.075Z,101069.34
2022-11-19T07:32:59.607Z,101055.56
2022-11-19T07:35:26.530Z,101060.97
2022-11-19T07:37:53.387Z,101046.44
2022-11-19T07:40:20.285Z,101054.22
2022-11-19T07:42:50.237Z,101053.53
2022-11-19T07:45:19.425Z,101053.53
2022-11-19T07:47:46.311Z,101058.97
2022-11-19T07:50:13.572Z,101055.69
2022-11-19T07:52:40.481Z,101056.84
2022-11-19T07:55:07.848Z,101054.41
2022-11-19T07:57:35.183Z,101045.91
2022-11-19T08:00:03.426Z,101061.69
2022-11-19T08:02:39.363Z,101061.97
2022-11-19T08:05:06.302Z,101058.66
2022-11-19T08:07:33.214Z,101049.16
2022-11-19T08:10:00.140Z,101063.38
2022-11-19T08:12:27.013Z,101054.16
2022-11-19T08:14:53.893Z,101056.94
2022-11-19T08:17:39.358Z,101058.00
2022-11-19T08:20:07.182Z,101055.53
2022-11-19T08:22:35.819Z,101057.44
2022-11-19T08:25:04.134Z,101050.72
2022-11-19T08:27:30.991Z,101055.22
2022-11-19T08:29:58.064Z,101029.06
2022-11-19T08:32:24.948Z,101040.94
2022-11-19T08:34:51.841Z,101035.66
2022-11-19T08:37:18.721Z,101047.22
2022-11-19T08:39:45.622Z,101044.00
2022-11-19T08:42:30.832Z,101038.97
2022-11-19T08:44:58.569Z,101046.94
2022-11-19T08:47:25.440Z,101038.59
2022-11-19T08:49:52.513Z,101045.66
2022-11-19T08:52:19.379Z,101033.91
2022-11-19T08:54:46.254Z,101041.00
2022-11-19T08:57:13.158Z,101039.53
2022-11-19T08:59:40.022Z,101039.00
2022-11-19T09:02:09.059Z,101038.34
2022-11-19T09:04:35.981Z,101029.97
2022-11-19T09:07:02.939Z,101035.28
2022-11-19T09:09:29.861Z,101030.25
2022-11-19T09:11:56.924Z,101032.06
2022-11-19T09:14:23.793Z,101033.88
2022-11-19T09:16:50.660Z,101027.94
2022-11-19T09:19:17.555Z,101027.94
2022-11-19T09:21:44.570Z,101006.22
2022-11-19T09:24:11.491Z,101023.66
2022-11-19T09:26:38.376Z,101020.19
2022-11-19T09:29:05.274Z,101015.75
2022-11-19T09:31:32.171Z,101014.91
2022-11-19T09:33:59.058Z,101007.06
2022-11-19T09:36:25.927Z,101006.22
2022-11-19T09:38:57.736Z,101004.31
2022-11-19T09:41:51.222Z,101013.94
2022-11-19T09:44:44.680Z,101009.72
2022-11-19T09:47:30.914Z,101005.31
2022-11-19T09:50:23.011Z,101007.00
2022-11-19T09:53:07.606Z,101002.69
2022-11-19T09:55:42.381Z,101002.84
2022-11-19T09:58:23.068Z,101002.88
2022-11-19T10:00:50.010Z,101022.69
2022-11-19T10:03:31.570Z,101008.81
2022-11-19T10:06:15.046Z,101008.19
2022-11-19T10:08:56.279Z,100988.44
2022-11-19T10:11:51.559Z,100995.41
2022-11-19T10:15:00.096Z,100990.31
2022-11-19T10:17:50.273Z,100990.41
2022-11-19T10:20:51.948Z,100987.09
2022-11-19T10:23:48.740Z,100983.75
2022-11-19T10:26:19.363Z,100983.81
2022-11-19T10:28:56.706Z,100977.22
2022-11-19T10:31:33.065Z,100987.72
2022-11-19T10:34:10.984Z,100975.66
2022-11-19T10:37:05.933Z,100981.19
2022-11-19T10:39:44.353Z,100982.16
2022-11-19T10:42:31.969Z,100978.84
2022-11-19T10:45:19.831Z,100967.00
2022-11-19T10:47:58.745Z,100961.94
2022-11-19T10:50:26.585Z,100962.94
2022-11-19T10:53:02.690Z,100967.34
2022-11-19T10:55:39.762Z,100958.03
2022-11-19T10:58:14.004Z,100952.19
2022-11-19T11:00:42.033Z,100957.50
2022-11-19T11:03:43.878Z,100954.34
2022-11-19T11:06:12.107Z,100943.25
2022-11-19T11:08:53.800Z,100943.47
2022-11-19T11:11:50.583Z,100941.88
2022-11-19T11:14:41.774Z,100939.41
2022-11-19T11:17:25.642Z,100925.56
2022-11-19T11:20:15.865Z,100935.41
2022-11-19T11:22:44.205Z,100924.16
2022-11-19T11:25:26.481Z,100928.53
2022-11-19T11:28:16.129Z,100926.19
2022-11-19T11:30:56.011Z,100918.34
2022-11-19T11:33:29.664Z,100922.94
2022-11-19T11:36:19.392Z,100920.44
2022-11-19T11:38:52.602Z,100919.56
2022-11-19T11:44:23.857Z,100905.19
2022-11-19T11:46:56.615Z,100904.47
2022-11-19T11:49:49.491Z,100916.66
2022-11-19T11:52:21.121Z,100901.31
2022-11-19T11:55:16.591Z,100900.66
2022-11-19T11:57:56.960Z,100912.84
2022-11-19T12:00:42.866Z,100912.06
2022-11-19T12:03:18.693Z,100900.94
2022-11-19T12:06:12.874Z,100897.56
2022-11-19T12:09:08.229Z,100898.44
2022-11-19T12:11:54.996Z,100893.97
2022-11-19T12:14:36.522Z,100900.22
2022-11-19T12:17:18.667Z,100896.84
2022-11-19T12:19:53.966Z,100898.63
2022-11-19T12:22:46.902Z,100895.25
2022-11-19T12:25:36.784Z,100902.22
2022-11-19T12:28:26.489Z,100896.31
2022-11-19T12:31:10.734Z,100886.84
2022-11-19T12:33:53.118Z,100884.34
2022-11-19T12:36:57.889Z,100886.19
2022-11-19T12:39:47.112Z,100898.25
2022-11-19T12:42:38.762Z,100876.78
2022-11-19T12:45:54.617Z,100880.28
2022-11-19T12:48:53.217Z,100880.28
2022-11-19T12:52:01.107Z,100879.44
2022-11-19T12:55:04.433Z,100882.00
2022-11-19T12:57:39.991Z,100880.28
2022-11-19T13:00:19.429Z,100873.41
2022-11-19T13:03:08.717Z,100870.75
2022-11-19T13:05:55.607Z,100864.72
2022-11-19T13:08:32.454Z,100868.16
2022-11-19T13:11:13.025Z,100869.03
2022-11-19T13:13:47.157Z,100864.72
2022-11-19T13:16:20.774Z,100862.94
2022-11-19T13:19:06.083Z,100878.50
2022-11-19T13:21:55.003Z,100868.22
2022-11-19T13:24:41.235Z,100865.72
2022-11-19T13:27:17.681Z,100869.22
2022-11-19T13:30:12.337Z,100821.84
2022-11-19T13:33:12.528Z,100873.66
2022-11-19T13:36:10.875Z,100872.06
2022-11-19T13:38:45.017Z,100871.25
2022-11-19T13:41:23.334Z,100860.81
2022-11-19T13:44:09.092Z,100853.13
2022-11-19T13:46:51.995Z,100866.09
2022-11-19T13:49:42.505Z,100872.97
2022-11-19T13:52:28.366Z,100860.81
2022-11-19T13:54:57.963Z,100860.91
2022-11-19T13:57:44.057Z,100867.69
2022-11-19T14:00:26.997Z,100864.13
2022-11-19T14:03:08.991Z,100868.41
2022-11-19T14:06:03.733Z,100866.63
2022-11-19T14:08:51.418Z,100856.25
2022-11-19T14:12:00.407Z,100863.94
2022-11-19T14:15:04.800Z,100865.59
2022-11-19T14:18:04.008Z,100874.13
2022-11-19T14:20:56.042Z,100873.22
2022-11-19T14:24:02.561Z,100885.19
2022-11-19T14:26:41.449Z,100886.88
2022-11-19T14:29:26.374Z,100878.22
2022-11-19T14:32:06.121Z,100882.41
2022-11-19T14:34:41.043Z,100885.00
2022-11-19T14:37:45.552Z,100887.56
2022-11-19T14:40:21.190Z,100891.03
2022-11-19T14:43:18.690Z,100887.59
2022-11-19T14:46:04.407Z,100884.94
2022-11-19T14:48:39.568Z,100877.91
2022-11-19T14:51:11.084Z,100875.38
2022-11-19T14:54:16.048Z,100879.69
2022-11-19T14:56:47.808Z,100886.56
2022-11-19T14:59:14.546Z,100885.72
2022-11-19T15:02:18.849Z,100893.28
2022-11-19T15:05:19.337Z,100884.78
2022-11-19T15:08:18.239Z,100883.81
2022-11-19T15:11:01.606Z,100891.50
2022-11-19T15:13:34.168Z,100879.47
2022-11-19T15:16:20.966Z,100883.75
2022-11-19T15:19:41.341Z,100876.72
2022-11-19T15:22:45.509Z,100882.75
2022-11-19T15:25:19.694Z,100887.88
2022-11-19T15:28:41.647Z,100880.84
2022-11-19T15:31:26.253Z,100874.56
2022-11-19T15:35:09.275Z,100876.34
2022-11-19T15:37:57.127Z,100871.91
2022-11-19T15:40:29.132Z,100874.44
2022-11-19T15:43:14.023Z,100871.78
2022-11-19T15:45:50.169Z,100878.72
2022-11-19T15:48:25.446Z,100870.81
2022-11-19T15:50:52.670Z,100873.34
2022-11-19T15:53:23.761Z,100875.06
2022-11-19T15:56:00.010Z,100854.97
2022-11-19T15:58:42.816Z,100867.25
2022-11-19T16:01:15.358Z,100870.69
2022-11-19T16:03:42.471Z,100866.41
2022-11-19T16:06:29.090Z,100855.19
2022-11-19T16:09:05.168Z,100865.59
2022-11-19T16:11:54.600Z,100861.31
2022-11-19T16:14:47.198Z,100856.94
2022-11-19T16:17:39.755Z,100858.66
2022-11-19T16:20:12.517Z,100858.56
2022-11-19T16:22:57.767Z,100865.38
2022-11-19T16:25:51.441Z,100863.66
2022-11-19T16:28:39.446Z,100861.00
2022-11-19T16:31:07.201Z,100862.72
2022-11-19T16:33:34.582Z,100857.50
2022-11-19T16:36:19.445Z,100857.41
2022-11-19T16:38:49.440Z,100867.59
2022-11-19T16:41:38.382Z,100857.28
2022-11-19T16:44:11.267Z,100865.78
2022-11-19T16:46:38.552Z,100855.19
2022-11-19T16:49:31.265Z,100855.25
2022-11-19T16:51:58.358Z,100854.09
2022-11-19T16:54:45.818Z,100856.69
2022-11-19T16:57:24.206Z,100844.31
2022-11-19T17:00:00.611Z,100861.69
2022-11-19T17:02:39.673Z,100860.84
2022-11-19T17:05:19.895Z,100856.47
2022-11-19T17:07:52.739Z,100863.28
2022-11-19T17:10:23.014Z,100861.59
2022-11-19T17:13:22.772Z,100854.66
2022-11-19T17:15:51.591Z,100856.31
2022-11-19T17:18:33.237Z,100850.28
2022-11-19T17:21:06.624Z,100849.34
2022-11-19T17:23:37.123Z,100851.94
2022-11-19T17:26:08.217Z,100854.50
2022-11-19T17:28:46.569Z,100853.72
2022-11-19T17:31:21.033Z,100849.41
2022-11-19T17:33:58.176Z,100855.50
2022-11-19T17:36:26.426Z,100854.63
2022-11-19T17:38:53.833Z,100839.78
2022-11-19T17:41:44.119Z,100852.84
2022-11-19T17:44:34.754Z,100853.72
2022-11-19T17:47:23.439Z,100852.84
2022-11-19T17:49:51.722Z,100843.00
2022-11-19T17:52:29.170Z,100856.19
2022-11-19T17:55:02.276Z,100857.94
2022-11-19T17:57:29.158Z,100854.56
2022-11-19T17:59:56.182Z,100851.16
2022-11-19T18:02:23.103Z,100858.09
2022-11-19T18:04:50.098Z,100848.69
2022-11-19T18:07:17.075Z,100851.31
2022-11-19T18:09:44.844Z,100853.97
2022-11-19T18:12:16.675Z,100852.28
2022-11-19T18:14:45.861Z,100848.00
2022-11-19T18:17:14.528Z,100844.50
2022-11-19T18:19:41.617Z,100855.75
2022-11-19T18:22:18.145Z,100860.06
2022-11-19T18:24:47.834Z,100859.28
2022-11-19T18:27:15.605Z,100860.97
2022-11-19T18:29:42.491Z,100851.50
2022-11-19T18:32:15.900Z,100845.56
2022-11-19T18:34:44.335Z,100843.84
2022-11-19T18:37:11.937Z,100844.66
2022-11-19T18:39:38.843Z,100838.59
2022-11-19T18:42:05.764Z,100844.56
2022-11-19T18:44:35.265Z,100843.63
2022-11-19T18:47:06.485Z,100846.13
2022-11-19T18:49:34.492Z,100850.34
2022-11-19T18:52:06.810Z,100842.53
2022-11-19T18:54:33.995Z,100844.97
2022-11-19T18:57:00.866Z,100849.13
2022-11-19T18:59:28.700Z,100843.03
2022-11-19T19:01:56.168Z,100835.28
2022-11-19T19:04:23.703Z,100843.81
2022-11-19T19:06:50.619Z,100839.41
2022-11-19T19:09:21.510Z,100852.22
2022-11-19T19:12:13.502Z,100852.16
2022-11-19T19:14:42.121Z,100851.19
2022-11-19T19:17:09.833Z,100837.06
2022-11-19T19:19:36.806Z,100847.59
2022-11-19T19:22:04.809Z,100856.97
2022-11-19T19:24:32.477Z,100850.06
2022-11-19T19:27:00.566Z,100862.06
2022-11-19T19:29:27.685Z,100856.84
2022-11-19T19:31:54.643Z,100862.00
2022-11-19T19:34:21.563Z,100862.00
2022-11-19T19:36:52.896Z,100862.00
2022-11-19T19:39:20.602Z,100861.13
2022-11-19T19:41:49.069Z,100848.94
2022-11-19T19:44:16.052Z,100857.59
2022-11-19T19:46:43.977Z,100854.16
2022-11-19T19:49:10.862Z,100856.69
2022-11-19T19:51:37.736Z,100853.31
2022-11-19T19:54:04.721Z,100857.59
2022-11-19T19:56:32.728Z,100863.53
2022-11-19T19:59:01.243Z,100858.41
2022-11-19T20:01:37.353Z,100856.75
2022-11-19T20:04:08.146Z,100865.34
2022-11-19T20:06:38.075Z,100854.94
2022-11-19T20:09:08.825Z,100853.31
2022-11-19T20:11:37.279Z,100852.44
2022-11-19T20:14:04.943Z,100855.84
2022-11-19T20:16:33.542Z,100866.06
2022-11-19T20:19:01.358Z,100862.50
2022-11-19T20:21:34.149Z,100854.72
2022-11-19T20:24:01.258Z,100858.06
2022-11-19T20:26:30.481Z,100859.06
2022-11-19T20:29:00.516Z,100864.22
2022-11-19T20:31:29.081Z,100864.22
2022-11-19T20:34:04.610Z,100865.91
2022-11-19T20:36:34.748Z,100868.53
2022-11-19T20:39:02.285Z,100876.34
2022-11-19T20:41:48.237Z,100878.91
2022-11-19T20:44:25.611Z,100879.00
2022-11-19T20:47:10.584Z,100875.56
2022-11-19T20:49:39.384Z,100874.72
2022-11-19T20:52:07.645Z,100870.41
2022-11-19T20:54:34.672Z,100866.91
2022-11-19T20:57:01.777Z,100865.25
2022-11-19T20:59:29.959Z,100860.88
2022-11-19T21:01:57.642Z,100860.75
2022-11-19T21:04:27.225Z,100855.50
2022-11-19T21:06:54.350Z,100857.13
2022-11-19T21:09:22.132Z,100853.66
2022-11-19T21:11:49.245Z,100855.31
2022-11-19T21:14:16.130Z,100850.97
2022-11-19T21:16:42.993Z,100857.75
2022-11-19T21:19:10.976Z,100847.44
2022-11-19T21:21:38.303Z,100857.75
2022-11-19T21:24:05.860Z,100846.50
2022-11-19T21:26:33.072Z,100849.28
2022-11-19T21:29:00.738Z,100849.22
2022-11-19T21:31:46.285Z,100848.19
2022-11-19T21:34:18.875Z,100848.34
2022-11-19T21:36:47.241Z,100853.50
2022-11-19T21:39:16.534Z,100848.34
2022-11-19T21:41:44.242Z,100844.94
2022-11-19T21:44:13.257Z,100852.72
2022-11-19T21:46:43.581Z,100839.78
2022-11-19T21:49:10.454Z,100842.31
2022-11-19T21:51:37.321Z,100843.19
2022-11-19T21:54:04.263Z,100839.72
2022-11-19T21:56:36.920Z,100838.84
2022-11-19T21:59:05.215Z,100837.06
2022-11-19T22:01:32.097Z,100835.47
2022-11-19T22:03:58.991Z,100820.88
2022-11-19T22:06:26.320Z,100828.66
2022-11-19T22:08:53.200Z,100822.53
2022-11-19T22:11:29.244Z,100820.09
2022-11-19T22:14:05.247Z,100826.13
2022-11-19T22:16:36.059Z,100825.31
2022-11-19T22:19:03.695Z,100815.00
2022-11-19T22:21:30.577Z,100815.03
2022-11-19T22:23:58.040Z,100815.91
2022-11-19T22:26:25.270Z,100812.53
2022-11-19T22:28:52.170Z,100817.69
2022-11-19T22:31:19.136Z,100814.16
2022-11-19T22:33:49.605Z,100815.03
2022-11-19T22:36:16.461Z,100815.88
2022-11-19T22:38:43.351Z,100813.25
2022-11-19T22:41:13.699Z,100807.22
2022-11-19T22:43:41.700Z,100806.34
2022-11-19T22:46:11.355Z,100800.31
2022-11-19T22:48:39.000Z,100796.81
2022-11-19T22:51:13.635Z,100795.13
2022-11-19T22:53:40.650Z,100791.59
2022-11-19T22:56:10.964Z,100790.66
2022-11-19T22:58:38.804Z,100797.53
2022-11-19T23:01:07.984Z,100803.53
2022-11-19T23:03:34.923Z,100805.19
2022-11-19T23:06:01.811Z,100822.44
2022-11-19T23:08:28.670Z,100816.44
2022-11-19T23:11:04.765Z,100807.91
2022-11-19T23:13:34.451Z,100809.63
2022-11-19T23:16:07.144Z,100810.50
2022-11-19T23:18:40.674Z,100800.16
2022-11-19T23:21:24.377Z,100810.63
2022-11-19T23:23:52.563Z,100811.53
2022-11-19T23:26:25.439Z,100804.78
2022-11-19T23:28:53.279Z,100804.94
2022-11-19T23:31:37.240Z,100804.94
2022-11-19T23:34:04.899Z,100811.91
2022-11-19T23:36:38.549Z,100803.94
2022-11-19T23:39:08.117Z,100815.38
2022-11-19T23:41:34.993Z,100812.00
2022-11-19T23:44:02.271Z,100805.91
2022-11-19T23:46:32.623Z,100814.72
2022-11-19T23:49:00.253Z,100803.41
2022-11-19T23:51:33.148Z,100813.88
2022-11-19T23:54:00.169Z,100811.34
2022-11-19T23:56:29.821Z,100810.47
2022-11-19T23:58:56.898Z,100811.38
